createdAt,value
2018-03-07T15:21:07.294Z,8.6
2018-03-07T15:22:14.590Z,8.6
2018-03-07T15:23:21.879Z,8.6
2018-03-07T15:24:29.087Z,8.6
2018-03-07T15:25:36.034Z,8.6
2018-03-07T15:26:43.235Z,8.6
2018-03-07T15:27:50.446Z,8.6
2018-03-07T15:28:57.382Z,8.6
2018-03-07T15:30:04.584Z,8.6
2018-03-07T15:31:11.804Z,8.7
2018-03-07T15:32:19.010Z,8.7
2018-03-07T15:33:26.215Z,8.7
2018-03-07T15:34:33.421Z,8.7
2018-03-07T15:35:40.632Z,8.7
2018-03-07T15:36:47.834Z,8.6
2018-03-07T15:37:54.795Z,8.7
2018-03-07T15:39:02.003Z,8.8
2018-03-07T15:40:09.217Z,9
2018-03-07T15:41:16.418Z,9
2018-03-07T15:42:23.622Z,8.9
2018-03-07T15:43:30.831Z,8.9
2018-03-07T15:44:38.031Z,8.7
2018-03-07T15:45:45.289Z,8.7
2018-03-07T15:46:52.225Z,8.6
2018-03-07T15:47:59.457Z,8.6
2018-03-07T15:49:06.661Z,8.6
2018-03-07T15:50:13.871Z,8.6
2018-03-07T15:51:21.077Z,8.6
2018-03-07T15:52:28.282Z,8.6
2018-03-07T15:53:35.559Z,8.6
2018-03-07T15:54:42.762Z,8.5
2018-03-07T15:55:49.976Z,8.5
2018-03-07T15:56:56.935Z,8.6
2018-03-07T15:58:03.865Z,9
2018-03-07T15:59:11.079Z,9.2
2018-03-07T16:00:18.283Z,9.4
2018-03-07T16:01:25.508Z,9.7
2018-03-07T16:02:32.713Z,9.9
2018-03-07T16:03:39.917Z,9.9
2018-03-07T16:04:47.122Z,9.9
2018-03-07T16:05:54.362Z,9.8
2018-03-07T16:07:01.296Z,9.8
2018-03-07T16:08:08.229Z,9.8
2018-03-07T16:09:15.173Z,9.7
2018-03-07T16:10:22.378Z,9.5
2018-03-07T16:11:29.589Z,9.4
2018-03-07T16:12:36.820Z,9.3
2018-03-07T16:13:44.033Z,9.2
2018-03-07T16:14:51.237Z,9
2018-03-07T16:15:58.444Z,8.9
2018-03-07T16:17:05.910Z,8.8
2018-03-07T16:18:13.168Z,8.7
2018-03-07T16:19:20.376Z,8.6
2018-03-07T16:20:27.579Z,8.6
2018-03-07T16:21:34.786Z,8.5
2018-03-07T16:22:41.999Z,8.4
2018-03-07T16:23:49.197Z,8.3
2018-03-07T16:24:56.399Z,8.3
2018-03-07T16:26:03.613Z,8.2
2018-03-07T16:27:10.809Z,8.2
2018-03-07T16:28:18.016Z,8.2
2018-03-07T16:29:24.949Z,8.2
2018-03-07T16:30:32.162Z,8.2
2018-03-07T16:31:39.578Z,8.1
2018-03-07T16:32:46.814Z,8.1
2018-03-07T16:33:54.024Z,8.1
2018-03-07T16:35:01.248Z,8.1
2018-03-07T16:36:08.455Z,8
2018-03-07T16:37:15.655Z,8
2018-03-07T16:38:22.856Z,7.9
2018-03-07T16:39:30.060Z,7.9
2018-03-07T16:40:37.264Z,7.8
2018-03-07T16:41:44.471Z,7.7
2018-03-07T16:42:51.411Z,7.7
2018-03-07T16:43:58.621Z,7.6
2018-03-07T16:45:05.564Z,7.5
2018-03-07T16:46:12.801Z,7.5
2018-03-07T16:47:19.734Z,7.5
2018-03-07T16:48:27.053Z,7.4
2018-03-07T16:49:34.255Z,7.4
2018-03-07T16:50:41.474Z,7.3
2018-03-07T16:51:48.703Z,7.3
2018-03-07T16:52:55.913Z,7.3
2018-03-07T16:54:03.123Z,7.3
2018-03-07T16:55:10.335Z,7.3
2018-03-07T16:56:17.596Z,7.2
2018-03-07T16:57:25.280Z,7.2
2018-03-07T16:58:32.213Z,7.2
2018-03-07T16:59:39.141Z,7
2018-03-07T17:00:46.348Z,7
2018-03-07T17:01:53.554Z,7
2018-03-07T17:03:00.495Z,6.9
2018-03-07T17:04:07.701Z,6.9
2018-03-07T17:47:10.521Z,6.3
2018-03-07T17:48:17.450Z,6.4
2018-03-07T17:49:24.655Z,6.4
2018-03-07T17:50:31.848Z,6.4
2018-03-07T17:51:38.830Z,6.4
2018-03-07T17:52:46.070Z,6.4
2018-03-07T17:53:53.014Z,6.3
2018-03-07T17:55:00.219Z,6.3
2018-03-07T17:56:07.508Z,6.2
2018-03-07T17:57:14.775Z,6.2
2018-03-07T17:58:21.977Z,6.1
2018-03-07T17:59:29.183Z,6.1
2018-03-07T18:00:36.395Z,6.1
2018-03-07T18:01:43.610Z,6
2018-03-07T18:02:50.822Z,6
2018-03-07T18:03:58.028Z,5.9
2018-03-07T18:05:05.228Z,5.9
2018-03-07T18:06:12.363Z,5.8
2018-03-07T18:07:19.567Z,5.8
2018-03-07T18:08:26.499Z,5.8
2018-03-07T18:09:33.422Z,5.8
2018-03-07T18:10:40.634Z,5.8
2018-03-07T18:11:47.838Z,5.7
2018-03-07T18:12:55.043Z,5.7
2018-03-07T18:14:03.069Z,5.7
2018-03-07T18:15:10.002Z,5.7
2018-03-07T18:16:17.216Z,5.6
2018-03-07T18:17:24.463Z,5.6
2018-03-07T18:18:31.393Z,5.7
2018-03-07T18:19:38.595Z,5.7
2018-03-07T18:20:45.814Z,5.7
2018-03-07T18:21:53.052Z,5.7
2018-03-07T18:22:59.736Z,5.7
2018-03-07T18:24:06.955Z,5.6
2018-03-07T18:25:14.180Z,5.6
2018-03-07T18:26:21.427Z,5.6
2018-03-07T18:27:28.637Z,5.6
2018-03-07T18:28:35.845Z,5.6
2018-03-07T18:29:42.776Z,5.5
2018-03-07T18:30:49.711Z,5.5
2018-03-07T18:31:56.924Z,5.5
2018-03-07T18:33:04.140Z,5.4
2018-03-07T18:34:11.336Z,5.4
2018-03-07T18:35:18.550Z,5.4
2018-03-07T18:36:26.145Z,5.4
2018-03-07T18:37:33.102Z,5.3
2018-03-07T18:38:40.086Z,5.3
2018-03-07T18:39:47.283Z,5.3
2018-03-07T18:40:54.496Z,5.2
2018-03-07T18:42:01.745Z,5.1
2018-03-07T18:43:08.959Z,5.1
2018-03-07T18:44:15.948Z,5.1
2018-03-07T18:45:22.937Z,5
2018-03-07T18:46:30.158Z,5
2018-03-07T18:47:37.098Z,4.9
2018-03-07T18:48:44.316Z,4.9
2018-03-07T18:49:51.565Z,4.9
2018-03-07T18:50:58.533Z,4.9
2018-03-07T18:52:05.753Z,4.8
2018-03-07T18:53:12.976Z,4.8
2018-03-07T18:54:20.184Z,4.8
2018-03-07T18:55:27.403Z,4.8
2018-03-07T18:56:34.635Z,4.8
2018-03-07T18:57:41.867Z,4.8
2018-03-07T18:58:49.088Z,4.8
2018-03-07T18:59:56.359Z,4.8
2018-03-07T19:01:03.588Z,4.8
2018-03-07T19:02:10.820Z,4.8
2018-03-07T19:03:18.090Z,4.7
2018-03-07T19:04:25.309Z,4.8
2018-03-07T19:05:32.540Z,4.8
2018-03-07T19:06:39.753Z,4.8
2018-03-07T19:07:46.723Z,4.8
2018-03-07T19:08:53.660Z,4.8
2018-03-07T19:10:00.877Z,4.8
2018-03-07T19:11:08.134Z,4.8
2018-03-07T19:12:15.351Z,4.8
2018-03-07T19:13:22.574Z,4.8
2018-03-07T19:14:29.789Z,4.8
2018-03-07T19:15:36.742Z,4.8
2018-03-07T19:16:43.967Z,4.8
2018-03-07T19:17:51.210Z,4.8
2018-03-07T19:18:58.543Z,4.8
2018-03-07T19:20:05.768Z,4.8
2018-03-07T19:21:12.987Z,4.8
2018-03-07T19:22:20.211Z,4.8
2018-03-07T19:23:27.167Z,4.8
2018-03-07T19:24:34.383Z,4.8
2018-03-07T19:25:41.599Z,4.8
2018-03-07T19:26:48.823Z,4.8
2018-03-07T19:27:56.048Z,4.8
2018-03-07T19:29:03.283Z,4.8
2018-03-07T19:30:10.505Z,4.8
2018-03-07T19:31:17.463Z,4.8
2018-03-07T19:32:24.680Z,4.8
2018-03-07T19:33:31.901Z,4.8
2018-03-07T19:34:39.345Z,4.8
2018-03-07T19:35:46.586Z,4.8
2018-03-07T19:36:53.797Z,4.8
2018-03-07T19:38:01.015Z,4.8
2018-03-07T19:39:08.246Z,4.7
2018-03-07T19:40:15.500Z,4.8
2018-03-07T19:41:22.728Z,4.8
2018-03-07T19:42:29.959Z,4.8
2018-03-07T19:43:36.894Z,4.7
2018-03-07T19:44:44.138Z,4.8
2018-03-07T19:45:51.531Z,4.8
2018-03-07T19:46:58.759Z,4.7
2018-03-07T19:48:05.701Z,4.7
2018-03-07T19:49:12.950Z,4.7
2018-03-07T19:50:20.187Z,4.7
2018-03-07T19:51:27.144Z,4.6
2018-03-07T19:52:34.366Z,4.7
2018-03-07T19:53:41.587Z,4.6
2018-03-07T19:54:48.927Z,4.6
2018-03-07T19:55:56.146Z,4.6
2018-03-07T19:57:03.375Z,4.6
2018-03-07T19:58:10.618Z,4.7
2018-03-07T19:59:17.783Z,4.6
2018-03-07T20:00:24.722Z,4.6
2018-03-07T20:01:31.949Z,4.6
2018-03-07T20:02:39.172Z,4.6
2018-03-07T20:03:46.450Z,4.6
2018-03-07T20:04:53.902Z,4.6
2018-03-07T20:06:01.129Z,4.6
2018-03-07T20:07:08.097Z,4.6
2018-03-07T20:08:15.373Z,4.6
2018-03-07T20:09:22.602Z,4.6
2018-03-07T20:10:29.553Z,4.6
2018-03-07T20:11:36.785Z,4.5
2018-03-07T20:12:44.029Z,4.5
2018-03-07T20:13:51.254Z,4.5
2018-03-07T20:14:58.097Z,4.6
2018-03-07T20:16:05.035Z,4.6
2018-03-07T20:17:12.257Z,4.6
2018-03-07T20:18:19.216Z,4.6
2018-03-07T20:19:26.436Z,4.6
2018-03-07T20:20:33.661Z,4.6
2018-03-07T20:21:41.110Z,4.6
2018-03-07T20:22:48.068Z,4.5
2018-03-07T20:23:55.287Z,4.5
2018-03-07T20:25:02.502Z,4.5
2018-03-07T20:26:09.728Z,4.5
2018-03-07T20:27:16.964Z,4.5
2018-03-07T20:28:24.198Z,4.5
2018-03-07T20:29:31.418Z,4.5
2018-03-07T20:30:38.412Z,4.5
2018-03-07T20:31:45.640Z,4.4
2018-03-07T20:32:52.870Z,4.4
2018-03-07T20:34:00.083Z,4.4
2018-03-07T20:35:07.302Z,4.4
2018-03-07T20:36:14.544Z,4.4
2018-03-07T20:37:21.781Z,4.4
2018-03-07T20:38:29.008Z,4.4
2018-03-07T20:39:36.225Z,4.4
2018-03-07T20:40:43.454Z,4.4
2018-03-07T20:41:50.709Z,4.4
2018-03-07T20:42:57.942Z,4.4
2018-03-07T20:44:05.160Z,4.4
2018-03-07T20:45:12.467Z,4.4
2018-03-07T20:46:19.755Z,4.4
2018-03-07T20:47:26.977Z,4.4
2018-03-07T20:48:34.192Z,4.4
2018-03-07T20:49:41.412Z,4.4
2018-03-07T20:50:48.646Z,4.4
2018-03-07T20:51:55.875Z,4.4
2018-03-07T20:53:03.094Z,4.4
2018-03-07T20:54:10.309Z,4.4
2018-03-07T20:55:17.533Z,4.4
2018-03-07T20:56:24.751Z,4.4
2018-03-07T20:57:31.968Z,4.4
2018-03-07T20:58:39.181Z,4.4
2018-03-07T20:59:46.412Z,4.4
2018-03-07T21:00:53.627Z,4.4
2018-03-07T21:02:00.847Z,4.4
2018-03-07T21:03:08.071Z,4.4
2018-03-07T21:04:15.323Z,4.4
2018-03-07T21:05:22.581Z,4.4
2018-03-07T21:06:29.814Z,4.4
2018-03-07T21:07:37.043Z,4.4
2018-03-07T21:08:44.254Z,4.4
2018-03-07T21:09:51.472Z,4.4
2018-03-07T21:10:58.416Z,4.4
2018-03-07T21:12:05.626Z,4.4
2018-03-07T21:13:12.838Z,4.4
2018-03-07T21:14:20.080Z,4.4
2018-03-07T21:15:27.302Z,4.4
2018-03-07T21:16:34.511Z,4.4
2018-03-07T21:17:41.721Z,4.4
2018-03-07T21:18:48.939Z,4.3
2018-03-07T21:19:56.166Z,4.4
2018-03-07T21:21:03.383Z,4.4
2018-03-07T21:22:10.677Z,4.4
2018-03-07T21:23:17.973Z,4.4
2018-03-07T21:24:25.183Z,4.4
2018-03-07T21:25:32.397Z,4.4
2018-03-07T21:26:39.602Z,4.4
2018-03-07T21:27:46.801Z,4.4
2018-03-07T21:28:54.003Z,4.4
2018-03-07T21:30:01.210Z,4.4
2018-03-07T21:31:08.417Z,4.4
2018-03-07T21:32:15.085Z,4.4
2018-03-07T21:33:21.734Z,4.4
2018-03-07T21:34:28.650Z,4.4
2018-03-07T21:35:35.584Z,4.3
2018-03-07T21:36:42.796Z,4.4
2018-03-07T21:37:49.441Z,4.4
2018-03-07T21:38:56.359Z,4.4
2018-03-07T21:40:03.561Z,4.4
2018-03-07T21:41:10.768Z,4.4
2018-03-07T21:42:17.702Z,4.4
2018-03-07T21:43:25.166Z,4.4
2018-03-07T21:44:32.075Z,4.4
2018-03-07T21:45:38.996Z,4.3
2018-03-07T21:46:46.202Z,4.4
2018-03-07T21:47:53.409Z,4.4
2018-03-07T21:49:00.370Z,4.4
2018-03-07T21:50:07.291Z,4.4
2018-03-07T21:51:14.218Z,4.4
2018-03-07T21:52:21.417Z,4.4
2018-03-07T21:53:28.343Z,4.4
2018-03-07T21:54:35.271Z,4.4
2018-03-07T21:55:41.915Z,4.4
2018-03-07T21:56:49.114Z,4.4
2018-03-07T21:57:56.317Z,4.4
2018-03-07T21:59:03.519Z,4.4
2018-03-07T22:00:10.733Z,4.4
2018-03-07T22:01:17.937Z,4.4
2018-03-07T22:02:24.588Z,4.5
2018-03-07T22:03:31.778Z,4.5
2018-03-07T22:04:38.978Z,4.5
2018-03-07T22:05:46.177Z,4.5
2018-03-07T22:06:53.378Z,4.5
2018-03-07T22:09:37.075Z,4.5
2018-03-07T22:10:44.273Z,4.5
2018-03-07T22:11:51.204Z,4.6
2018-03-07T22:13:13.056Z,4.6
2018-03-07T22:14:20.261Z,4.6
2018-03-07T22:15:27.460Z,4.7
2018-03-07T22:16:34.667Z,4.6
2018-03-07T22:17:41.853Z,4.7
2018-03-07T22:18:49.051Z,4.7
2018-03-07T22:19:56.247Z,4.7
2018-03-07T22:21:03.450Z,4.7
2018-03-07T22:22:10.372Z,4.7
2018-03-07T22:23:17.577Z,4.8
2018-03-07T22:24:24.789Z,4.7
2018-03-07T22:25:32.003Z,4.8
2018-03-07T22:26:39.195Z,4.8
2018-03-07T22:27:46.401Z,4.8
2018-03-07T22:28:53.599Z,4.8
2018-03-07T22:30:00.835Z,4.8
2018-03-07T22:31:08.018Z,4.8
2018-03-07T22:32:15.220Z,4.8
2018-03-07T22:33:22.151Z,4.8
2018-03-07T22:34:29.361Z,4.8
2018-03-07T22:35:36.558Z,4.8
2018-03-07T22:36:43.758Z,4.8
2018-03-07T22:37:50.784Z,4.8
2018-03-07T22:38:58.045Z,4.8
2018-03-07T22:40:04.973Z,4.8
2018-03-07T22:41:11.904Z,4.8
2018-03-07T22:42:19.102Z,4.8
2018-03-07T22:43:26.304Z,4.8
2018-03-07T22:44:33.497Z,4.8
2018-03-07T22:45:40.701Z,4.8
2018-03-07T22:46:47.914Z,4.8
2018-03-07T22:47:55.145Z,4.8
2018-03-07T22:49:02.349Z,4.8
2018-03-07T22:50:09.557Z,4.8
2018-03-07T22:51:16.751Z,4.8
2018-03-07T22:52:23.955Z,4.8
2018-03-07T22:53:30.881Z,4.8
2018-03-07T22:54:37.899Z,4.8
2018-03-07T22:55:45.096Z,4.8
2018-03-07T22:56:52.305Z,4.8
2018-03-07T22:57:59.226Z,4.8
2018-03-07T22:59:06.424Z,4.8
2018-03-07T23:00:13.621Z,4.8
2018-03-07T23:01:20.823Z,4.8
2018-03-07T23:02:28.038Z,4.8
2018-03-07T23:03:35.233Z,4.8
2018-03-07T23:04:42.436Z,4.8
2018-03-07T23:05:49.364Z,4.8
2018-03-07T23:06:56.966Z,4.9
2018-03-07T23:08:03.608Z,4.9
2018-03-07T23:09:10.806Z,4.8
2018-03-07T23:10:18.007Z,4.8
2018-03-07T23:11:25.217Z,4.8
2018-03-07T23:12:32.139Z,4.8
2018-03-07T23:13:39.333Z,4.8
2018-03-07T23:14:46.639Z,4.9
2018-03-07T23:15:53.882Z,4.9
2018-03-07T23:17:01.085Z,4.9
2018-03-07T23:18:09.311Z,4.9
2018-03-07T23:19:16.501Z,4.9
2018-03-07T23:20:23.424Z,5
2018-03-07T23:21:30.852Z,4.9
2018-03-07T23:22:37.755Z,5
2018-03-07T23:23:44.953Z,5
2018-03-07T23:24:51.876Z,5
2018-03-07T23:25:59.078Z,4.9
2018-03-07T23:27:06.277Z,4.9
2018-03-07T23:28:13.483Z,4.9
2018-03-07T23:29:20.686Z,4.9
2018-03-07T23:30:27.947Z,5
2018-03-07T23:31:35.140Z,4.9
2018-03-07T23:32:42.339Z,4.9
2018-03-07T23:33:49.558Z,4.9
2018-03-07T23:34:56.760Z,4.9
2018-03-07T23:36:03.962Z,4.9
2018-03-07T23:37:11.189Z,4.9
2018-03-07T23:38:18.389Z,4.9
2018-03-07T23:39:25.628Z,4.9
2018-03-07T23:40:32.558Z,4.9
2018-03-07T23:41:39.779Z,4.8
2018-03-07T23:42:46.997Z,4.8
2018-03-07T23:43:54.228Z,4.9
2018-03-07T23:45:01.426Z,4.9
2018-03-07T23:46:08.629Z,4.8
2018-03-07T23:47:15.554Z,4.8
2018-03-07T23:48:22.751Z,4.8
2018-03-07T23:49:29.954Z,4.8
2018-03-07T23:50:37.152Z,4.8
2018-03-07T23:51:43.796Z,4.9
2018-03-07T23:52:51.001Z,4.8
2018-03-07T23:53:58.205Z,4.9
2018-03-07T23:55:05.135Z,4.9
2018-03-07T23:56:12.333Z,4.9
2018-03-07T23:57:19.534Z,4.9
2018-03-07T23:58:26.738Z,4.9
2018-03-07T23:59:33.936Z,4.9
